sensor_id;sensor_type;location;lat;lon;timestamp;P1;durP1;ratioP1;P2;durP2;ratioP2
53453;SDS011;49404;50.472;6.954;2024-02-23T06:56:09;4.10;;;0.52;;
53453;SDS011;49404;50.472;6.954;2024-02-23T06:58:34;6.47;;;0.50;;
53453;SDS011;49404;50.472;6.954;2024-02-23T07:01:01;2.58;;;0.40;;
53453;SDS011;49404;50.472;6.954;2024-02-23T07:03:28;9.05;;;0.43;;
53453;SDS011;49404;50.472;6.954;2024-02-23T07:05:55;3.72;;;0.43;;
53453;SDS011;49404;50.472;6.954;2024-02-23T07:08:21;5.20;;;0.50;;
53453;SDS011;49404;50.472;6.954;2024-02-23T07:10:47;3.15;;;0.40;;
53453;SDS011;49404;50.472;6.954;2024-02-23T07:13:13;1.92;;;0.35;;
53453;SDS011;49404;50.472;6.954;2024-02-23T07:15:39;1.67;;;0.30;;
53453;SDS011;49404;50.472;6.954;2024-02-23T07:18:05;2.22;;;0.38;;
53453;SDS011;49404;50.472;6.954;2024-02-23T07:20:33;3.00;;;0.30;;
53453;SDS011;49404;50.472;6.954;2024-02-23T07:22:59;4.30;;;0.35;;
53453;SDS011;49404;50.472;6.954;2024-02-23T07:25:25;2.15;;;0.50;;
53453;SDS011;49404;50.472;6.954;2024-02-23T07:27:51;5.68;;;0.40;;
53453;SDS011;49404;50.472;6.954;2024-02-23T07:30:17;2.95;;;0.40;;
53453;SDS011;49404;50.472;6.954;2024-02-23T07:32:44;1.42;;;0.30;;
53453;SDS011;49404;50.472;6.954;2024-02-23T07:35:13;3.20;;;0.40;;
53453;SDS011;49404;50.472;6.954;2024-02-23T07:37:39;2.92;;;0.32;;
53453;SDS011;49404;50.472;6.954;2024-02-23T07:40:06;0.65;;;0.20;;
53453;SDS011;49404;50.472;6.954;2024-02-23T07:42:32;1.98;;;0.28;;
53453;SDS011;49404;50.472;6.954;2024-02-23T07:45:01;1.05;;;0.20;;
53453;SDS011;49404;50.472;6.954;2024-02-23T07:47:27;0.52;;;0.20;;
53453;SDS011;49404;50.472;6.954;2024-02-23T07:49:53;2.10;;;0.20;;
53453;SDS011;49404;50.472;6.954;2024-02-23T07:52:19;6.97;;;0.30;;
53453;SDS011;49404;50.472;6.954;2024-02-23T07:54:47;8.75;;;0.30;;
53453;SDS011;49404;50.472;6.954;2024-02-23T07:57:13;6.72;;;0.40;;
53453;SDS011;49404;50.472;6.954;2024-02-23T07:59:41;12.68;;;0.32;;
53453;SDS011;49404;50.472;6.954;2024-02-23T08:02:07;0.90;;;0.20;;
53453;SDS011;49404;50.472;6.954;2024-02-23T08:04:42;5.22;;;0.30;;
53453;SDS011;49404;50.472;6.954;2024-02-23T08:07:12;9.77;;;0.28;;
53453;SDS011;49404;50.472;6.954;2024-02-23T08:09:38;1.33;;;0.20;;
53453;SDS011;49404;50.472;6.954;2024-02-23T08:12:05;2.53;;;0.20;;
53453;SDS011;49404;50.472;6.954;2024-02-23T08:14:31;2.10;;;0.20;;
53453;SDS011;49404;50.472;6.954;2024-02-23T08:16:57;5.95;;;0.30;;
53453;SDS011;49404;50.472;6.954;2024-02-23T08:19:24;1.40;;;0.20;;
53453;SDS011;49404;50.472;6.954;2024-02-23T08:21:50;0.82;;;0.20;;
53453;SDS011;49404;50.472;6.954;2024-02-23T08:24:16;0.57;;;0.20;;
53453;SDS011;49404;50.472;6.954;2024-02-23T08:26:42;1.02;;;0.30;;
53453;SDS011;49404;50.472;6.954;2024-02-23T08:29:08;2.63;;;0.20;;
53453;SDS011;49404;50.472;6.954;2024-02-23T08:31:34;3.22;;;0.20;;
53453;SDS011;49404;50.472;6.954;2024-02-23T08:34:00;2.45;;;0.20;;
53453;SDS011;49404;50.472;6.954;2024-02-23T08:36:26;1.60;;;0.30;;
53453;SDS011;49404;50.472;6.954;2024-02-23T08:38:52;1.45;;;0.20;;
53453;SDS011;49404;50.472;6.954;2024-02-23T08:41:18;0.88;;;0.28;;
53453;SDS011;49404;50.472;6.954;2024-02-23T08:43:44;1.20;;;0.20;;
53453;SDS011;49404;50.472;6.954;2024-02-23T08:46:11;1.70;;;0.50;;
53453;SDS011;49404;50.472;6.954;2024-02-23T08:48:37;1.15;;;0.20;;
53453;SDS011;49404;50.472;6.954;2024-02-23T08:51:03;4.45;;;0.22;;
53453;SDS011;49404;50.472;6.954;2024-02-23T08:53:29;0.73;;;0.20;;
53453;SDS011;49404;50.472;6.954;2024-02-23T08:55:55;0.43;;;0.22;;
53453;SDS011;49404;50.472;6.954;2024-02-23T08:58:22;2.42;;;0.38;;
53453;SDS011;49404;50.472;6.954;2024-02-23T09:00:48;1.35;;;0.30;;
53453;SDS011;49404;50.472;6.954;2024-02-23T09:03:14;2.33;;;0.30;;
53453;SDS011;49404;50.472;6.954;2024-02-23T09:05:40;0.77;;;0.20;;
53453;SDS011;49404;50.472;6.954;2024-02-23T09:08:06;0.47;;;0.30;;
53453;SDS011;49404;50.472;6.954;2024-02-23T09:10:32;3.85;;;0.30;;
53453;SDS011;49404;50.472;6.954;2024-02-23T09:12:58;1.88;;;0.30;;
53453;SDS011;49404;50.472;6.954;2024-02-23T09:15:24;2.70;;;0.30;;
53453;SDS011;49404;50.472;6.954;2024-02-23T09:17:50;0.70;;;0.30;;
53453;SDS011;49404;50.472;6.954;2024-02-23T09:20:16;0.70;;;0.22;;
53453;SDS011;49404;50.472;6.954;2024-02-23T09:22:42;0.30;;;0.30;;
53453;SDS011;49404;50.472;6.954;2024-02-23T09:25:08;0.85;;;0.20;;
53453;SDS011;49404;50.472;6.954;2024-02-23T09:27:34;1.35;;;0.38;;
53453;SDS011;49404;50.472;6.954;2024-02-23T09:30:05;0.63;;;0.20;;
53453;SDS011;49404;50.472;6.954;2024-02-23T09:32:31;2.85;;;0.38;;
53453;SDS011;49404;50.472;6.954;2024-02-23T09:34:57;1.35;;;0.30;;
53453;SDS011;49404;50.472;6.954;2024-02-23T09:37:23;1.20;;;0.40;;
53453;SDS011;49404;50.472;6.954;2024-02-23T09:39:49;0.77;;;0.20;;
53453;SDS011;49404;50.472;6.954;2024-02-23T09:42:15;0.98;;;0.30;;
53453;SDS011;49404;50.472;6.954;2024-02-23T09:44:43;0.50;;;0.20;;
53453;SDS011;49404;50.472;6.954;2024-02-23T09:47:11;0.82;;;0.30;;
53453;SDS011;49404;50.472;6.954;2024-02-23T09:49:38;0.75;;;0.25;;
53453;SDS011;49404;50.472;6.954;2024-02-23T09:52:08;0.32;;;0.20;;
53453;SDS011;49404;50.472;6.954;2024-02-23T09:54:35;0.90;;;0.28;;
53453;SDS011;49404;50.472;6.954;2024-02-23T09:57:01;0.50;;;0.28;;
53453;SDS011;49404;50.472;6.954;2024-02-23T09:59:29;0.50;;;0.30;;
53453;SDS011;49404;50.472;6.954;2024-02-23T10:01:56;0.77;;;0.20;;
53453;SDS011;49404;50.472;6.954;2024-02-23T10:04:22;0.73;;;0.30;;
53453;SDS011;49404;50.472;6.954;2024-02-23T10:06:49;0.50;;;0.20;;
53453;SDS011;49404;50.472;6.954;2024-02-23T10:09:15;0.63;;;0.20;;
53453;SDS011;49404;50.472;6.954;2024-02-23T10:11:41;0.68;;;0.20;;
53453;SDS011;49404;50.472;6.954;2024-02-23T10:14:08;0.70;;;0.20;;
53453;SDS011;49404;50.472;6.954;2024-02-23T10:16:34;0.25;;;0.20;;
53453;SDS011;49404;50.472;6.954;2024-02-23T10:19:00;0.57;;;0.22;;
53453;SDS011;49404;50.472;6.954;2024-02-23T10:21:26;0.55;;;0.28;;
53453;SDS011;49404;50.472;6.954;2024-02-23T10:23:52;1.50;;;0.22;;
53453;SDS011;49404;50.472;6.954;2024-02-23T10:26:18;0.40;;;0.20;;
53453;SDS011;49404;50.472;6.954;2024-02-23T10:28:47;0.63;;;0.30;;
53453;SDS011;49404;50.472;6.954;2024-02-23T10:31:13;0.32;;;0.20;;
53453;SDS011;49404;50.472;6.954;2024-02-23T10:33:39;0.57;;;0.30;;
53453;SDS011;49404;50.472;6.954;2024-02-23T10:36:05;0.40;;;0.20;;
53453;SDS011;49404;50.472;6.954;2024-02-23T10:38:35;0.13;;;0.10;;
53453;SDS011;49404;50.472;6.954;2024-02-23T10:41:06;0.85;;;0.30;;
53453;SDS011;49404;50.472;6.954;2024-02-23T10:43:50;0.22;;;0.20;;
53453;SDS011;49404;50.472;6.954;2024-02-23T10:48:44;0.35;;;0.13;;
53453;SDS011;49404;50.472;6.954;2024-02-23T10:51:10;0.20;;;0.10;;
53453;SDS011;49404;50.472;6.954;2024-02-23T10:53:39;0.20;;;0.10;;
53453;SDS011;49404;50.472;6.954;2024-02-23T10:56:05;0.38;;;0.20;;
53453;SDS011;49404;50.472;6.954;2024-02-23T10:58:32;0.40;;;0.20;;
53453;SDS011;49404;50.472;6.954;2024-02-23T11:00:59;0.40;;;0.20;;
53453;SDS011;49404;50.472;6.954;2024-02-23T11:03:26;0.20;;;0.10;;
53453;SDS011;49404;50.472;6.954;2024-02-23T11:05:53;0.30;;;0.20;;
53453;SDS011;49404;50.472;6.954;2024-02-23T11:08:19;0.20;;;0.10;;
53453;SDS011;49404;50.472;6.954;2024-02-23T11:10:49;0.40;;;0.10;;
53453;SDS011;49404;50.472;6.954;2024-02-23T11:13:18;0.25;;;0.20;;
53453;SDS011;49404;50.472;6.954;2024-02-23T11:15:44;1.08;;;0.20;;
53453;SDS011;49404;50.472;6.954;2024-02-23T11:18:23;0.30;;;0.13;;
53453;SDS011;49404;50.472;6.954;2024-02-23T11:20:55;0.98;;;0.20;;
53453;SDS011;49404;50.472;6.954;2024-02-23T11:23:24;0.20;;;0.20;;
53453;SDS011;49404;50.472;6.954;2024-02-23T11:28:28;0.30;;;0.20;;
53453;SDS011;49404;50.472;6.954;2024-02-23T11:30:55;0.25;;;0.15;;
53453;SDS011;49404;50.472;6.954;2024-02-23T11:33:28;0.30;;;0.10;;
53453;SDS011;49404;50.472;6.954;2024-02-23T11:36:04;0.57;;;0.22;;
53453;SDS011;49404;50.472;6.954;2024-02-23T11:38:31;0.52;;;0.20;;
53453;SDS011;49404;50.472;6.954;2024-02-23T11:40:59;6.82;;;0.20;;
53453;SDS011;49404;50.472;6.954;2024-02-23T11:43:25;0.80;;;0.10;;
53453;SDS011;49404;50.472;6.954;2024-02-23T11:45:52;2.03;;;0.20;;
53453;SDS011;49404;50.472;6.954;2024-02-23T11:48:18;1.42;;;0.20;;
53453;SDS011;49404;50.472;6.954;2024-02-23T11:50:44;8.07;;;0.25;;
53453;SDS011;49404;50.472;6.954;2024-02-23T11:53:10;1.00;;;0.20;;
53453;SDS011;49404;50.472;6.954;2024-02-23T11:55:36;0.93;;;0.20;;
53453;SDS011;49404;50.472;6.954;2024-02-23T11:58:02;1.08;;;0.30;;
53453;SDS011;49404;50.472;6.954;2024-02-23T12:00:28;1.80;;;0.20;;
53453;SDS011;49404;50.472;6.954;2024-02-23T12:02:55;1.02;;;0.20;;
53453;SDS011;49404;50.472;6.954;2024-02-23T12:05:21;0.25;;;0.20;;
53453;SDS011;49404;50.472;6.954;2024-02-23T12:07:47;1.02;;;0.20;;
53453;SDS011;49404;50.472;6.954;2024-02-23T12:10:13;0.45;;;0.20;;
53453;SDS011;49404;50.472;6.954;2024-02-23T12:12:40;6.40;;;0.20;;
53453;SDS011;49404;50.472;6.954;2024-02-23T12:15:06;0.75;;;0.20;;
53453;SDS011;49404;50.472;6.954;2024-02-23T12:17:35;1.20;;;0.20;;
53453;SDS011;49404;50.472;6.954;2024-02-23T12:20:02;2.20;;;0.20;;
53453;SDS011;49404;50.472;6.954;2024-02-23T12:22:28;1.35;;;0.28;;
53453;SDS011;49404;50.472;6.954;2024-02-23T12:24:57;0.43;;;0.20;;
53453;SDS011;49404;50.472;6.954;2024-02-23T12:27:24;0.65;;;0.30;;
53453;SDS011;49404;50.472;6.954;2024-02-23T12:29:53;0.50;;;0.20;;
53453;SDS011;49404;50.472;6.954;2024-02-23T12:32:19;0.13;;;0.10;;
53453;SDS011;49404;50.472;6.954;2024-02-23T12:34:46;0.55;;;0.25;;
53453;SDS011;49404;50.472;6.954;2024-02-23T12:37:16;2.95;;;0.20;;
53453;SDS011;49404;50.472;6.954;2024-02-23T12:39:42;0.40;;;0.20;;
53453;SDS011;49404;50.472;6.954;2024-02-23T12:42:08;0.52;;;0.20;;
53453;SDS011;49404;50.472;6.954;2024-02-23T12:44:34;0.75;;;0.20;;
53453;SDS011;49404;50.472;6.954;2024-02-23T12:47:00;0.25;;;0.20;;
53453;SDS011;49404;50.472;6.954;2024-02-23T12:49:26;0.50;;;0.20;;
53453;SDS011;49404;50.472;6.954;2024-02-23T12:51:52;1.85;;;0.20;;
53453;SDS011;49404;50.472;6.954;2024-02-23T12:54:18;0.40;;;0.20;;
53453;SDS011;49404;50.472;6.954;2024-02-23T12:56:44;0.77;;;0.10;;
53453;SDS011;49404;50.472;6.954;2024-02-23T12:59:10;0.22;;;0.10;;
53453;SDS011;49404;50.472;6.954;2024-02-23T13:01:36;0.90;;;0.30;;
53453;SDS011;49404;50.472;6.954;2024-02-23T13:04:04;1.83;;;0.17;;
53453;SDS011;49404;50.472;6.954;2024-02-23T13:06:39;0.43;;;0.22;;
53453;SDS011;49404;50.472;6.954;2024-02-23T13:09:05;1.27;;;0.20;;
53453;SDS011;49404;50.472;6.954;2024-02-23T13:11:36;0.88;;;0.20;;
53453;SDS011;49404;50.472;6.954;2024-02-23T13:14:03;0.95;;;0.28;;
53453;SDS011;49404;50.472;6.954;2024-02-23T13:16:29;0.95;;;0.20;;
53453;SDS011;49404;50.472;6.954;2024-02-23T13:18:55;0.73;;;0.30;;
53453;SDS011;49404;50.472;6.954;2024-02-23T13:21:21;1.15;;;0.43;;
53453;SDS011;49404;50.472;6.954;2024-02-23T13:23:48;3.95;;;0.40;;
53453;SDS011;49404;50.472;6.954;2024-02-23T13:26:14;1.42;;;0.30;;
53453;SDS011;49404;50.472;6.954;2024-02-23T13:28:44;1.10;;;0.28;;
53453;SDS011;49404;50.472;6.954;2024-02-23T13:31:10;1.42;;;0.30;;
53453;SDS011;49404;50.472;6.954;2024-02-23T13:33:36;0.60;;;0.20;;
53453;SDS011;49404;50.472;6.954;2024-02-23T13:36:02;1.42;;;0.35;;
53453;SDS011;49404;50.472;6.954;2024-02-23T13:38:28;1.23;;;0.30;;
53453;SDS011;49404;50.472;6.954;2024-02-23T13:40:54;0.82;;;0.30;;
53453;SDS011;49404;50.472;6.954;2024-02-23T13:43:20;0.90;;;0.30;;
53453;SDS011;49404;50.472;6.954;2024-02-23T13:45:50;1.10;;;0.15;;
53453;SDS011;49404;50.472;6.954;2024-02-23T13:48:16;1.65;;;0.30;;
53453;SDS011;49404;50.472;6.954;2024-02-23T13:50:43;0.63;;;0.20;;
53453;SDS011;49404;50.472;6.954;2024-02-23T13:53:10;0.52;;;0.20;;
53453;SDS011;49404;50.472;6.954;2024-02-23T13:55:37;0.93;;;0.20;;
53453;SDS011;49404;50.472;6.954;2024-02-23T13:58:03;0.35;;;0.20;;
53453;SDS011;49404;50.472;6.954;2024-02-23T14:00:29;2.35;;;0.30;;
53453;SDS011;49404;50.472;6.954;2024-02-23T14:02:55;8.80;;;0.30;;
53453;SDS011;49404;50.472;6.954;2024-02-23T14:05:21;0.93;;;0.30;;
53453;SDS011;49404;50.472;6.954;2024-02-23T14:07:50;6.47;;;0.30;;
53453;SDS011;49404;50.472;6.954;2024-02-23T14:10:16;2.63;;;0.28;;
53453;SDS011;49404;50.472;6.954;2024-02-23T14:12:42;4.65;;;0.30;;
53453;SDS011;49404;50.472;6.954;2024-02-23T14:15:08;0.60;;;0.22;;
53453;SDS011;49404;50.472;6.954;2024-02-23T14:17:38;2.20;;;0.30;;
53453;SDS011;49404;50.472;6.954;2024-02-23T14:20:04;1.27;;;0.50;;
53453;SDS011;49404;50.472;6.954;2024-02-23T14:22:31;0.80;;;0.30;;
53453;SDS011;49404;50.472;6.954;2024-02-23T14:24:57;0.20;;;0.20;;
53453;SDS011;49404;50.472;6.954;2024-02-23T14:27:23;2.17;;;0.30;;
53453;SDS011;49404;50.472;6.954;2024-02-23T14:29:49;0.43;;;0.20;;
53453;SDS011;49404;50.472;6.954;2024-02-23T14:32:17;1.52;;;0.20;;
53453;SDS011;49404;50.472;6.954;2024-02-23T14:34:43;1.30;;;0.20;;
53453;SDS011;49404;50.472;6.954;2024-02-23T14:37:09;0.85;;;0.20;;
53453;SDS011;49404;50.472;6.954;2024-02-23T14:39:35;0.80;;;0.20;;
53453;SDS011;49404;50.472;6.954;2024-02-23T14:42:01;6.60;;;0.30;;
53453;SDS011;49404;50.472;6.954;2024-02-23T14:44:28;0.13;;;0.13;;
53453;SDS011;49404;50.472;6.954;2024-02-23T14:46:54;0.57;;;0.20;;
53453;SDS011;49404;50.472;6.954;2024-02-23T14:49:20;0.57;;;0.20;;
53453;SDS011;49404;50.472;6.954;2024-02-23T14:51:46;1.63;;;0.30;;
53453;SDS011;49404;50.472;6.954;2024-02-23T14:54:13;1.00;;;0.30;;
53453;SDS011;49404;50.472;6.954;2024-02-23T14:56:39;0.55;;;0.22;;
53453;SDS011;49404;50.472;6.954;2024-02-23T14:59:08;0.70;;;0.20;;
53453;SDS011;49404;50.472;6.954;2024-02-23T15:01:37;0.50;;;0.20;;
53453;SDS011;49404;50.472;6.954;2024-02-23T15:04:06;0.32;;;0.20;;
53453;SDS011;49404;50.472;6.954;2024-02-23T15:06:32;0.30;;;0.20;;
53453;SDS011;49404;50.472;6.954;2024-02-23T15:08:58;0.30;;;0.10;;
53453;SDS011;49404;50.472;6.954;2024-02-23T15:11:24;0.30;;;0.13;;
53453;SDS011;49404;50.472;6.954;2024-02-23T15:13:50;0.40;;;0.17;;
53453;SDS011;49404;50.472;6.954;2024-02-23T15:16:16;1.25;;;0.25;;
53453;SDS011;49404;50.472;6.954;2024-02-23T15:18:42;0.30;;;0.13;;
53453;SDS011;49404;50.472;6.954;2024-02-23T15:21:08;0.77;;;0.20;;
53453;SDS011;49404;50.472;6.954;2024-02-23T15:23:36;1.50;;;0.25;;
53453;SDS011;49404;50.472;6.954;2024-02-23T15:26:02;1.15;;;0.20;;
53453;SDS011;49404;50.472;6.954;2024-02-23T15:28:28;4.10;;;0.20;;
53453;SDS011;49404;50.472;6.954;2024-02-23T15:36:06;2.75;;;0.30;;
53453;SDS011;49404;50.472;6.954;2024-02-23T15:41:38;0.75;;;0.30;;
53453;SDS011;49404;50.472;6.954;2024-02-23T15:44:05;3.97;;;0.60;;
53453;SDS011;49404;50.472;6.954;2024-02-23T15:46:31;1.77;;;0.40;;
53453;SDS011;49404;50.472;6.954;2024-02-23T15:48:57;4.45;;;0.50;;
53453;SDS011;49404;50.472;6.954;2024-02-23T15:51:23;2.95;;;0.40;;
53453;SDS011;49404;50.472;6.954;2024-02-23T15:53:49;2.28;;;0.40;;
53453;SDS011;49404;50.472;6.954;2024-02-23T15:56:15;2.25;;;0.50;;
53453;SDS011;49404;50.472;6.954;2024-02-23T15:58:41;1.77;;;0.40;;
53453;SDS011;49404;50.472;6.954;2024-02-23T16:01:07;1.90;;;0.40;;
53453;SDS011;49404;50.472;6.954;2024-02-23T16:03:33;1.10;;;0.40;;
53453;SDS011;49404;50.472;6.954;2024-02-23T16:05:59;1.52;;;0.40;;
53453;SDS011;49404;50.472;6.954;2024-02-23T16:08:41;2.20;;;0.30;;
53453;SDS011;49404;50.472;6.954;2024-02-23T16:11:08;4.68;;;0.38;;
53453;SDS011;49404;50.472;6.954;2024-02-23T16:13:35;1.67;;;0.30;;
53453;SDS011;49404;50.472;6.954;2024-02-23T16:16:01;3.90;;;0.40;;
53453;SDS011;49404;50.472;6.954;2024-02-23T16:18:27;1.40;;;0.40;;
53453;SDS011;49404;50.472;6.954;2024-02-23T16:20:53;4.43;;;0.30;;
53453;SDS011;49404;50.472;6.954;2024-02-23T16:23:20;0.77;;;0.30;;
53453;SDS011;49404;50.472;6.954;2024-02-23T16:25:46;1.55;;;0.30;;
53453;SDS011;49404;50.472;6.954;2024-02-23T16:28:12;1.15;;;0.30;;
53453;SDS011;49404;50.472;6.954;2024-02-23T16:30:38;1.17;;;0.28;;
53453;SDS011;49404;50.472;6.954;2024-02-23T16:33:04;1.92;;;0.38;;
53453;SDS011;49404;50.472;6.954;2024-02-23T16:35:30;0.85;;;0.30;;
53453;SDS011;49404;50.472;6.954;2024-02-23T16:37:56;0.32;;;0.20;;
53453;SDS011;49404;50.472;6.954;2024-02-23T17:59:25;1.27;;;0.25;;
53453;SDS011;49404;50.472;6.954;2024-02-23T18:01:51;0.75;;;0.20;;
53453;SDS011;49404;50.472;6.954;2024-02-23T18:04:17;1.90;;;0.20;;
53453;SDS011;49404;50.472;6.954;2024-02-23T18:06:47;1.80;;;0.30;;
53453;SDS011;49404;50.472;6.954;2024-02-23T18:09:15;0.63;;;0.10;;
53453;SDS011;49404;50.472;6.954;2024-02-23T18:11:41;0.47;;;0.20;;
53453;SDS011;49404;50.472;6.954;2024-02-23T18:14:07;0.57;;;0.15;;
53453;SDS011;49404;50.472;6.954;2024-02-23T18:16:37;2.42;;;0.13;;
53453;SDS011;49404;50.472;6.954;2024-02-23T18:19:03;0.70;;;0.20;;
53453;SDS011;49404;50.472;6.954;2024-02-23T18:21:30;1.05;;;0.20;;
53453;SDS011;49404;50.472;6.954;2024-02-23T18:23:56;0.38;;;0.10;;
53453;SDS011;49404;50.472;6.954;2024-02-23T18:26:22;0.90;;;0.10;;
53453;SDS011;49404;50.472;6.954;2024-02-23T18:28:48;0.45;;;0.20;;
53453;SDS011;49404;50.472;6.954;2024-02-23T18:31:18;1.20;;;0.10;;
53453;SDS011;49404;50.472;6.954;2024-02-23T18:33:44;0.43;;;0.10;;
53453;SDS011;49404;50.472;6.954;2024-02-23T18:36:10;3.47;;;0.20;;
53453;SDS011;49404;50.472;6.954;2024-02-23T18:38:42;5.90;;;0.20;;
53453;SDS011;49404;50.472;6.954;2024-02-23T18:41:09;0.52;;;0.17;;
53453;SDS011;49404;50.472;6.954;2024-02-23T18:43:35;1.25;;;0.13;;
53453;SDS011;49404;50.472;6.954;2024-02-23T18:46:04;1.08;;;0.10;;
53453;SDS011;49404;50.472;6.954;2024-02-23T18:48:30;0.10;;;0.10;;
53453;SDS011;49404;50.472;6.954;2024-02-23T18:50:56;1.20;;;0.20;;
53453;SDS011;49404;50.472;6.954;2024-02-23T18:53:22;0.22;;;0.10;;
53453;SDS011;49404;50.472;6.954;2024-02-23T18:55:48;0.43;;;0.20;;
53453;SDS011;49404;50.472;6.954;2024-02-23T18:58:14;2.13;;;0.10;;
53453;SDS011;49404;50.472;6.954;2024-02-23T19:00:40;0.40;;;0.10;;
53453;SDS011;49404;50.472;6.954;2024-02-23T19:03:06;1.88;;;0.22;;
53453;SDS011;49404;50.472;6.954;2024-02-23T19:05:32;0.25;;;0.10;;
53453;SDS011;49404;50.472;6.954;2024-02-23T19:07:58;0.20;;;0.10;;
53453;SDS011;49404;50.472;6.954;2024-02-23T19:10:24;2.70;;;0.10;;
53453;SDS011;49404;50.472;6.954;2024-02-23T19:12:50;0.77;;;0.15;;
53453;SDS011;49404;50.472;6.954;2024-02-23T19:15:16;1.85;;;0.20;;
53453;SDS011;49404;50.472;6.954;2024-02-23T19:17:42;1.45;;;0.10;;
53453;SDS011;49404;50.472;6.954;2024-02-23T19:20:08;0.30;;;0.10;;
53453;SDS011;49404;50.472;6.954;2024-02-23T19:22:37;3.70;;;0.20;;
53453;SDS011;49404;50.472;6.954;2024-02-23T19:25:05;0.25;;;0.10;;
53453;SDS011;49404;50.472;6.954;2024-02-23T19:27:31;1.88;;;0.17;;
53453;SDS011;49404;50.472;6.954;2024-02-23T19:29:57;1.27;;;0.20;;
53453;SDS011;49404;50.472;6.954;2024-02-23T19:32:27;1.90;;;0.15;;
53453;SDS011;49404;50.472;6.954;2024-02-23T19:34:53;0.50;;;0.10;;
53453;SDS011;49404;50.472;6.954;2024-02-23T19:37:19;0.43;;;0.10;;
53453;SDS011;49404;50.472;6.954;2024-02-23T19:39:45;1.05;;;0.20;;
53453;SDS011;49404;50.472;6.954;2024-02-23T19:42:11;0.40;;;0.20;;
53453;SDS011;49404;50.472;6.954;2024-02-23T19:44:39;0.20;;;0.10;;
53453;SDS011;49404;50.472;6.954;2024-02-23T19:47:08;1.75;;;0.20;;
53453;SDS011;49404;50.472;6.954;2024-02-23T19:49:34;0.45;;;0.10;;
53453;SDS011;49404;50.472;6.954;2024-02-23T19:52:00;0.20;;;0.10;;
53453;SDS011;49404;50.472;6.954;2024-02-23T19:54:29;0.47;;;0.10;;
53453;SDS011;49404;50.472;6.954;2024-02-23T19:56:55;0.10;;;0.10;;
53453;SDS011;49404;50.472;6.954;2024-02-23T19:59:21;0.45;;;0.20;;
53453;SDS011;49404;50.472;6.954;2024-02-23T20:01:47;0.35;;;0.10;;
53453;SDS011;49404;50.472;6.954;2024-02-23T20:04:13;0.32;;;0.17;;
53453;SDS011;49404;50.472;6.954;2024-02-23T20:06:39;1.00;;;0.20;;
53453;SDS011;49404;50.472;6.954;2024-02-23T20:09:05;0.20;;;0.10;;
53453;SDS011;49404;50.472;6.954;2024-02-23T20:11:34;0.10;;;0.10;;
53453;SDS011;49404;50.472;6.954;2024-02-23T20:14:00;0.35;;;0.10;;
53453;SDS011;49404;50.472;6.954;2024-02-23T20:16:26;0.52;;;0.13;;
53453;SDS011;49404;50.472;6.954;2024-02-23T20:18:52;0.10;;;0.10;;
53453;SDS011;49404;50.472;6.954;2024-02-23T20:21:18;1.10;;;0.10;;
53453;SDS011;49404;50.472;6.954;2024-02-23T20:23:44;0.55;;;0.20;;
53453;SDS011;49404;50.472;6.954;2024-02-23T20:26:10;0.10;;;0.10;;
53453;SDS011;49404;50.472;6.954;2024-02-23T20:28:36;0.28;;;0.20;;
53453;SDS011;49404;50.472;6.954;2024-02-23T20:31:02;0.55;;;0.10;;
53453;SDS011;49404;50.472;6.954;2024-02-23T20:33:31;0.10;;;0.10;;
53453;SDS011;49404;50.472;6.954;2024-02-23T20:35:57;0.05;;;0.05;;
53453;SDS011;49404;50.472;6.954;2024-02-23T20:38:23;0.75;;;0.20;;
53453;SDS011;49404;50.472;6.954;2024-02-23T20:40:49;0.10;;;0.10;;
53453;SDS011;49404;50.472;6.954;2024-02-23T20:43:15;0.25;;;0.13;;
53453;SDS011;49404;50.472;6.954;2024-02-23T20:45:41;0.63;;;0.10;;
53453;SDS011;49404;50.472;6.954;2024-02-23T20:48:07;0.10;;;0.10;;
53453;SDS011;49404;50.472;6.954;2024-02-23T20:50:36;0.60;;;0.10;;
53453;SDS011;49404;50.472;6.954;2024-02-23T20:53:02;1.23;;;0.10;;
53453;SDS011;49404;50.472;6.954;2024-02-23T20:55:28;0.10;;;0.10;;
53453;SDS011;49404;50.472;6.954;2024-02-23T20:57:54;0.13;;;0.10;;
53453;SDS011;49404;50.472;6.954;2024-02-23T21:00:21;0.40;;;0.20;;
53453;SDS011;49404;50.472;6.954;2024-02-23T21:02:47;0.10;;;0.10;;
53453;SDS011;49404;50.472;6.954;2024-02-23T21:05:13;0.43;;;0.10;;
53453;SDS011;49404;50.472;6.954;2024-02-23T21:07:41;0.20;;;0.10;;
53453;SDS011;49404;50.472;6.954;2024-02-23T21:10:09;0.20;;;0.10;;
